Tallman, New York
Current Conditions -  °F | °C
As of 1:51 PM on Sunday 21 Dec 2014 (Local Time) from KTEB Reporting Station
Overcast Overcast  
Wind Chill: 29°   Ceiling: 3400
Heat Index: 36°   Visibility: 10mi
Dew Point: 27°   Wind: 9mph
Humidity: 70%   Direction: 320°NW
Pressure: 30.28"   Gusts: NA
Location:  41.11°N, 74.1°W
Report Text: KTEB 211851Z 32008KT 10SM SCT020 OVC034 02/M03 A3028 RMK AO2 SLP254 T00221028
Loading
Personal Weather Stations






























Interactive Weather Map New forecast layout! Learn more

10-Day Weather Forecast

Advertisements
Track Severe Weather on mobile